AEE87N LGAV-LTFM
Flight info
| Callsign | AEE87N |
|---|---|
| Flight time | 1h 1m |
| Altitude | 37000 |
| Route | KRO UN604 INBET |
| Aircraft | A20N/M-SDE2E3FGHIRWXY/LB1 |
Departure
| Time | 2026-05-04 14:54 |
|---|---|
| Airport | Athens Eleftherios Venizelos International Airport (LGAV) |
Arrival
| Time | 2026-05-04 15:56 |
|---|---|
| Airport | İstanbul Airport (LTFM) |
| Time | Latitude | Longitude | Altitude | Speed | Heading |
|---|---|---|---|---|---|
| 2026-05-04 14:35 | 37.93697 | 23.94924 | 284 ft | 0 kts | 301° |
| 2026-05-04 14:41 | 37.93696 | 23.94927 | 282 ft | 1 kts | 301° |
| 2026-05-04 14:42 | 37.93688 | 23.94943 | 289 ft | 1 kts | 301° |
| 2026-05-04 14:42 | 37.93680 | 23.94959 | 287 ft | 2 kts | 302° |
| 2026-05-04 14:42 | 37.93673 | 23.94975 | 284 ft | 2 kts | 302° |
| 2026-05-04 14:43 | 37.93663 | 23.94998 | 282 ft | 3 kts | 281° |
| 2026-05-04 14:43 | 37.93667 | 23.95030 | 282 ft | 5 kts | 221° |
| 2026-05-04 14:43 | 37.93668 | 23.95031 | 282 ft | 0 kts | 221° |
| 2026-05-04 14:43 | 37.93667 | 23.95031 | 282 ft | 0 kts | 221° |
| 2026-05-04 14:46 | 37.93667 | 23.95030 | 282 ft | 1 kts | 221° |
| 2026-05-04 14:46 | 37.93654 | 23.95017 | 289 ft | 4 kts | 219° |
| 2026-05-04 14:46 | 37.93650 | 23.95013 | 287 ft | 1 kts | 218° |
| 2026-05-04 14:47 | 37.93638 | 23.95001 | 282 ft | 4 kts | 216° |
| 2026-05-04 14:47 | 37.93608 | 23.94975 | 282 ft | 7 kts | 215° |
| 2026-05-04 14:47 | 37.93568 | 23.94938 | 286 ft | 6 kts | 216° |
| 2026-05-04 14:47 | 37.93527 | 23.94899 | 283 ft | 7 kts | 217° |
| 2026-05-04 14:48 | 37.93477 | 23.94865 | 284 ft | 9 kts | 189° |
| 2026-05-04 14:48 | 37.93434 | 23.94901 | 284 ft | 8 kts | 131° |
| 2026-05-04 14:48 | 37.93399 | 23.94957 | 285 ft | 8 kts | 130° |
| 2026-05-04 14:48 | 37.93347 | 23.94985 | 284 ft | 8 kts | 187° |
| 2026-05-04 14:49 | 37.93292 | 23.94940 | 287 ft | 10 kts | 217° |
| 2026-05-04 14:49 | 37.93228 | 23.94879 | 286 ft | 11 kts | 217° |
| 2026-05-04 14:49 | 37.93158 | 23.94812 | 285 ft | 13 kts | 217° |
| 2026-05-04 14:49 | 37.93087 | 23.94745 | 288 ft | 10 kts | 217° |
| 2026-05-04 14:50 | 37.93025 | 23.94686 | 288 ft | 12 kts | 217° |
| 2026-05-04 14:50 | 37.92958 | 23.94622 | 287 ft | 13 kts | 216° |
| 2026-05-04 14:50 | 37.92879 | 23.94547 | 288 ft | 15 kts | 216° |
| 2026-05-04 14:50 | 37.92796 | 23.94467 | 291 ft | 15 kts | 217° |
| 2026-05-04 14:51 | 37.92715 | 23.94391 | 294 ft | 15 kts | 217° |
| 2026-05-04 14:51 | 37.92640 | 23.94320 | 296 ft | 11 kts | 217° |
| 2026-05-04 14:51 | 37.92576 | 23.94259 | 296 ft | 10 kts | 217° |
| 2026-05-04 14:51 | 37.92513 | 23.94198 | 295 ft | 10 kts | 217° |
| 2026-05-04 14:52 | 37.92475 | 23.94166 | 295 ft | 8 kts | 205° |
| 2026-05-04 14:52 | 37.92464 | 23.94162 | 294 ft | 2 kts | 195° |
| 2026-05-04 14:52 | 37.92439 | 23.94165 | 297 ft | 5 kts | 158° |
| 2026-05-04 14:52 | 37.92416 | 23.94208 | 292 ft | 8 kts | 105° |
| 2026-05-04 14:53 | 37.92415 | 23.94290 | 292 ft | 11 kts | 88° |
| 2026-05-04 14:53 | 37.92421 | 23.94379 | 297 ft | 10 kts | 73° |
| 2026-05-04 14:53 | 37.92453 | 23.94424 | 292 ft | 0 kts | 37° |
| 2026-05-04 14:53 | 37.92507 | 23.94476 | 295 ft | 34 kts | 37° |
| 2026-05-04 14:54 | 37.92890 | 23.94840 | 285 ft | 100 kts | 37° |
| 2026-05-04 14:54 | 37.93596 | 23.95506 | 280 ft | 150 kts | 37° |
| 2026-05-04 14:54 | 37.94516 | 23.96364 | 552 ft | 168 kts | 38° |
| 2026-05-04 14:54 | 37.95429 | 23.97241 | 1298 ft | 162 kts | 37° |
| 2026-05-04 14:55 | 37.96316 | 23.98118 | 1937 ft | 167 kts | 34° |
| 2026-05-04 14:55 | 37.97270 | 23.99057 | 2369 ft | 181 kts | 34° |
| 2026-05-04 14:55 | 37.98067 | 24.00420 | 2752 ft | 210 kts | 63° |
| 2026-05-04 14:55 | 37.98582 | 24.02271 | 3201 ft | 235 kts | 70° |
| 2026-05-04 14:56 | 37.99048 | 24.04358 | 3764 ft | 258 kts | 71° |
| 2026-05-04 14:56 | 37.99549 | 24.06614 | 4483 ft | 271 kts | 71° |
| 2026-05-04 14:56 | 37.99899 | 24.08139 | 5138 ft | 273 kts | 70° |
| 2026-05-04 14:56 | 38.00450 | 24.10465 | 6088 ft | 278 kts | 69° |
| 2026-05-04 14:57 | 38.01026 | 24.12829 | 7021 ft | 282 kts | 69° |
| 2026-05-04 14:57 | 38.01610 | 24.15195 | 8051 ft | 282 kts | 69° |
| 2026-05-04 14:57 | 38.02201 | 24.17574 | 9036 ft | 284 kts | 69° |
| 2026-05-04 14:57 | 38.02792 | 24.19962 | 10053 ft | 285 kts | 69° |
| 2026-05-04 14:58 | 38.03396 | 24.22394 | 10707 ft | 298 kts | 69° |
| 2026-05-04 14:58 | 38.04048 | 24.25010 | 11053 ft | 321 kts | 69° |
| 2026-05-04 14:58 | 38.04969 | 24.27640 | 11562 ft | 331 kts | 59° |
| 2026-05-04 14:58 | 38.06062 | 24.30225 | 11970 ft | 333 kts | 59° |
| 2026-05-04 14:59 | 38.07164 | 24.32815 | 12097 ft | 333 kts | 59° |
| 2026-05-04 14:59 | 38.08265 | 24.35406 | 12110 ft | 333 kts | 59° |
| 2026-05-04 14:59 | 38.10466 | 24.40582 | 12107 ft | 332 kts | 59° |
| 2026-05-04 15:00 | 38.11564 | 24.43170 | 12117 ft | 332 kts | 58° |
| 2026-05-04 15:00 | 38.12667 | 24.45770 | 12293 ft | 336 kts | 58° |
| 2026-05-04 15:00 | 38.13778 | 24.48391 | 13187 ft | 335 kts | 58° |
| 2026-05-04 15:01 | 38.15996 | 24.53632 | 14828 ft | 342 kts | 59° |
| 2026-05-04 15:01 | 38.17117 | 24.56279 | 15498 ft | 347 kts | 59° |
| 2026-05-04 15:01 | 38.18264 | 24.58994 | 16187 ft | 351 kts | 59° |
| 2026-05-04 15:01 | 38.19428 | 24.61753 | 16806 ft | 356 kts | 59° |
| 2026-05-04 15:02 | 38.20607 | 24.64549 | 17435 ft | 361 kts | 59° |
| 2026-05-04 15:02 | 38.21798 | 24.67379 | 18132 ft | 365 kts | 59° |
| 2026-05-04 15:02 | 38.23001 | 24.70240 | 18780 ft | 368 kts | 59° |
| 2026-05-04 15:02 | 38.24211 | 24.73118 | 19388 ft | 371 kts | 60° |
| 2026-05-04 15:03 | 38.25433 | 24.76028 | 19987 ft | 374 kts | 60° |
| 2026-05-04 15:03 | 38.26661 | 24.78958 | 20609 ft | 377 kts | 60° |
| 2026-05-04 15:03 | 38.27904 | 24.81922 | 21171 ft | 381 kts | 60° |
| 2026-05-04 15:03 | 38.29137 | 24.84868 | 21817 ft | 382 kts | 60° |
| 2026-05-04 15:04 | 38.30397 | 24.87878 | 22333 ft | 388 kts | 60° |
| 2026-05-04 15:04 | 38.31671 | 24.90929 | 22907 ft | 391 kts | 60° |
| 2026-05-04 15:04 | 38.32948 | 24.93988 | 23542 ft | 393 kts | 60° |
| 2026-05-04 15:04 | 38.34241 | 24.97087 | 23952 ft | 399 kts | 60° |
| 2026-05-04 15:05 | 38.35540 | 25.00208 | 24549 ft | 398 kts | 61° |
| 2026-05-04 15:05 | 38.36844 | 25.03342 | 24970 ft | 402 kts | 60° |
| 2026-05-04 15:05 | 38.38157 | 25.06502 | 25477 ft | 403 kts | 61° |
| 2026-05-04 15:05 | 38.39471 | 25.09666 | 25956 ft | 406 kts | 61° |
| 2026-05-04 15:06 | 38.40914 | 25.12770 | 26404 ft | 407 kts | 55° |
| 2026-05-04 15:06 | 38.42637 | 25.15636 | 26871 ft | 408 kts | 50° |
| 2026-05-04 15:06 | 38.44441 | 25.18404 | 27274 ft | 411 kts | 50° |
| 2026-05-04 15:07 | 38.48092 | 25.24055 | 28115 ft | 415 kts | 50° |
| 2026-05-04 15:07 | 38.49936 | 25.26917 | 28528 ft | 417 kts | 51° |
| 2026-05-04 15:07 | 38.51787 | 25.29790 | 28933 ft | 419 kts | 51° |
| 2026-05-04 15:07 | 38.53639 | 25.32666 | 29322 ft | 420 kts | 51° |
| 2026-05-04 15:08 | 38.55494 | 25.35552 | 29797 ft | 420 kts | 51° |
| 2026-05-04 15:08 | 38.57358 | 25.38452 | 30168 ft | 422 kts | 51° |
| 2026-05-04 15:08 | 38.59228 | 25.41364 | 30441 ft | 425 kts | 51° |
| 2026-05-04 15:08 | 38.61112 | 25.44301 | 30701 ft | 428 kts | 51° |
| 2026-05-04 15:09 | 38.63007 | 25.47257 | 30969 ft | 431 kts | 50° |
| 2026-05-04 15:09 | 38.64914 | 25.50236 | 31253 ft | 434 kts | 50° |
| 2026-05-04 15:09 | 38.66824 | 25.53220 | 31587 ft | 434 kts | 51° |
| 2026-05-04 15:10 | 38.70621 | 25.59163 | 32372 ft | 433 kts | 50° |
| 2026-05-04 15:10 | 38.72526 | 25.62151 | 32723 ft | 433 kts | 50° |
| 2026-05-04 15:10 | 38.76336 | 25.68137 | 33493 ft | 432 kts | 50° |
| 2026-05-04 15:11 | 38.78230 | 25.71117 | 33831 ft | 431 kts | 50° |
| 2026-05-04 15:11 | 38.80123 | 25.74096 | 34150 ft | 431 kts | 50° |
| 2026-05-04 15:11 | 38.82020 | 25.77086 | 34351 ft | 433 kts | 50° |
| 2026-05-04 15:11 | 38.83917 | 25.80076 | 34666 ft | 431 kts | 50° |
| 2026-05-04 15:12 | 38.85813 | 25.83069 | 34849 ft | 433 kts | 49° |
| 2026-05-04 15:12 | 38.87711 | 25.86067 | 35107 ft | 433 kts | 49° |
| 2026-05-04 15:12 | 38.89616 | 25.89081 | 35260 ft | 435 kts | 49° |
| 2026-05-04 15:12 | 38.91524 | 25.92101 | 35493 ft | 436 kts | 49° |
| 2026-05-04 15:13 | 38.93438 | 25.95132 | 35661 ft | 438 kts | 49° |
| 2026-05-04 15:13 | 38.95329 | 25.98132 | 35910 ft | 437 kts | 49° |
| 2026-05-04 15:13 | 38.97249 | 26.01178 | 36059 ft | 439 kts | 49° |
| 2026-05-04 15:13 | 38.99170 | 26.04229 | 36291 ft | 439 kts | 49° |
| 2026-05-04 15:14 | 39.01093 | 26.07286 | 36465 ft | 440 kts | 49° |
| 2026-05-04 15:14 | 39.03022 | 26.10356 | 36638 ft | 441 kts | 49° |
| 2026-05-04 15:14 | 39.04953 | 26.13431 | 36813 ft | 442 kts | 49° |
| 2026-05-04 15:14 | 39.06890 | 26.16521 | 36986 ft | 443 kts | 49° |
| 2026-05-04 15:15 | 39.08826 | 26.19610 | 37061 ft | 444 kts | 49° |
| 2026-05-04 15:15 | 39.12690 | 26.25785 | 37066 ft | 441 kts | 49° |
| 2026-05-04 15:16 | 39.18433 | 26.34983 | 37071 ft | 441 kts | 49° |
| 2026-05-04 15:17 | 39.24865 | 26.43347 | 37069 ft | 436 kts | 34° |
| 2026-05-04 15:17 | 39.32555 | 26.49432 | 37065 ft | 430 kts | 30° |
| 2026-05-04 15:18 | 39.37530 | 26.53798 | 37060 ft | 432 kts | 33° |
| 2026-05-04 15:19 | 39.44919 | 26.60418 | 37059 ft | 431 kts | 33° |
| 2026-05-04 15:19 | 39.52287 | 26.67035 | 37062 ft | 430 kts | 33° |
| 2026-05-04 15:20 | 39.57174 | 26.71437 | 37068 ft | 430 kts | 33° |
| 2026-05-04 15:20 | 39.62124 | 26.75904 | 37073 ft | 431 kts | 33° |
| 2026-05-04 15:21 | 39.67048 | 26.80354 | 37066 ft | 431 kts | 33° |
| 2026-05-04 15:22 | 39.74386 | 26.87003 | 37080 ft | 430 kts | 33° |
| 2026-05-04 15:22 | 39.81754 | 26.93697 | 37058 ft | 430 kts | 33° |
| 2026-05-04 15:23 | 39.86656 | 26.98163 | 37057 ft | 430 kts | 33° |
| 2026-05-04 15:23 | 39.91528 | 27.02609 | 37037 ft | 429 kts | 33° |
| 2026-05-04 15:24 | 39.96379 | 27.07042 | 36470 ft | 421 kts | 34° |
| 2026-05-04 15:24 | 40.01133 | 27.11390 | 35053 ft | 413 kts | 34° |
| 2026-05-04 15:25 | 40.03456 | 27.13518 | 34242 ft | 410 kts | 35° |
| 2026-05-04 15:25 | 40.05779 | 27.15646 | 33281 ft | 407 kts | 35° |
| 2026-05-04 15:25 | 40.08105 | 27.17782 | 32184 ft | 408 kts | 34° |
| 2026-05-04 15:26 | 40.12764 | 27.22067 | 29978 ft | 409 kts | 35° |
| 2026-05-04 15:26 | 40.15077 | 27.24191 | 28956 ft | 404 kts | 33° |
| 2026-05-04 15:26 | 40.20081 | 27.27162 | 27190 ft | 392 kts | 15° |
| 2026-05-04 15:27 | 40.22753 | 27.27763 | 26315 ft | 389 kts | 6° |
| 2026-05-04 15:27 | 40.28060 | 27.28118 | 24660 ft | 379 kts | 6° |
| 2026-05-04 15:28 | 40.33259 | 27.28480 | 23011 ft | 368 kts | 5° |
| 2026-05-04 15:28 | 40.35799 | 27.28657 | 22149 ft | 363 kts | 5° |
| 2026-05-04 15:28 | 40.40777 | 27.29004 | 20476 ft | 353 kts | 5° |
| 2026-05-04 15:29 | 40.43229 | 27.29175 | 19669 ft | 348 kts | 5° |
| 2026-05-04 15:30 | 40.52649 | 27.29826 | 16526 ft | 329 kts | 4° |
| 2026-05-04 15:30 | 40.59368 | 27.30287 | 15088 ft | 315 kts | 4° |
| 2026-05-04 15:31 | 40.63772 | 27.30592 | 15027 ft | 319 kts | 4° |
| 2026-05-04 15:31 | 40.65988 | 27.30745 | 15026 ft | 319 kts | 4° |
| 2026-05-04 15:32 | 40.72653 | 27.31279 | 15024 ft | 319 kts | 9° |
| 2026-05-04 15:32 | 40.77015 | 27.32355 | 15021 ft | 318 kts | 18° |
| 2026-05-04 15:33 | 40.80497 | 27.35837 | 14850 ft | 329 kts | 55° |
| 2026-05-04 15:34 | 40.81526 | 27.44877 | 14130 ft | 339 kts | 83° |
| 2026-05-04 15:34 | 40.81560 | 27.47931 | 13748 ft | 335 kts | 82° |
| 2026-05-04 15:34 | 40.81753 | 27.54018 | 13102 ft | 334 kts | 81° |
| 2026-05-04 15:35 | 40.82035 | 27.60160 | 12587 ft | 332 kts | 80° |
| 2026-05-04 15:35 | 40.82179 | 27.63199 | 12324 ft | 330 kts | 80° |
| 2026-05-04 15:35 | 40.82324 | 27.66230 | 12067 ft | 331 kts | 80° |
| 2026-05-04 15:36 | 40.82611 | 27.72304 | 11557 ft | 331 kts | 80° |
| 2026-05-04 15:36 | 40.82752 | 27.75332 | 11304 ft | 330 kts | 80° |
| 2026-05-04 15:36 | 40.82890 | 27.78315 | 11057 ft | 329 kts | 80° |
| 2026-05-04 15:37 | 40.83029 | 27.81330 | 10802 ft | 329 kts | 80° |
| 2026-05-04 15:37 | 40.83168 | 27.84352 | 10557 ft | 330 kts | 80° |
| 2026-05-04 15:37 | 40.83303 | 27.87350 | 10431 ft | 323 kts | 80° |
| 2026-05-04 15:37 | 40.83429 | 27.90250 | 10317 ft | 311 kts | 80° |
| 2026-05-04 15:38 | 40.83549 | 27.93035 | 10171 ft | 295 kts | 80° |
| 2026-05-04 15:38 | 40.83660 | 27.95648 | 10008 ft | 276 kts | 79° |
| 2026-05-04 15:38 | 40.83765 | 27.98102 | 9850 ft | 259 kts | 79° |
| 2026-05-04 15:38 | 40.83867 | 28.00421 | 9657 ft | 248 kts | 78° |
| 2026-05-04 15:39 | 40.83973 | 28.02675 | 9419 ft | 246 kts | 78° |
| 2026-05-04 15:39 | 40.84084 | 28.04952 | 9288 ft | 250 kts | 78° |
| 2026-05-04 15:39 | 40.84291 | 28.09539 | 9035 ft | 252 kts | 78° |
| 2026-05-04 15:40 | 40.84392 | 28.11851 | 8898 ft | 250 kts | 78° |
| 2026-05-04 15:40 | 40.84457 | 28.13366 | 8808 ft | 249 kts | 78° |
| 2026-05-04 15:40 | 40.84555 | 28.15655 | 8681 ft | 250 kts | 78° |
| 2026-05-04 15:40 | 40.84654 | 28.17951 | 8545 ft | 249 kts | 78° |
| 2026-05-04 15:41 | 40.84782 | 28.20977 | 8365 ft | 249 kts | 79° |
| 2026-05-04 15:41 | 40.84879 | 28.23264 | 8240 ft | 250 kts | 79° |
| 2026-05-04 15:41 | 40.84975 | 28.25556 | 8106 ft | 249 kts | 79° |
| 2026-05-04 15:41 | 40.85040 | 28.27098 | 8020 ft | 250 kts | 79° |
| 2026-05-04 15:42 | 40.85136 | 28.29389 | 7896 ft | 249 kts | 79° |
| 2026-05-04 15:42 | 40.85229 | 28.31645 | 7763 ft | 248 kts | 79° |
| 2026-05-04 15:42 | 40.85323 | 28.33924 | 7631 ft | 249 kts | 79° |
| 2026-05-04 15:42 | 40.85416 | 28.36206 | 7507 ft | 249 kts | 79° |
| 2026-05-04 15:43 | 40.85508 | 28.38484 | 7411 ft | 247 kts | 79° |
| 2026-05-04 15:43 | 40.85599 | 28.40741 | 7280 ft | 246 kts | 79° |
| 2026-05-04 15:43 | 40.85692 | 28.43002 | 7152 ft | 247 kts | 79° |
| 2026-05-04 15:43 | 40.85794 | 28.45264 | 7037 ft | 245 kts | 76° |
| 2026-05-04 15:44 | 40.86148 | 28.47424 | 6936 ft | 237 kts | 63° |
| 2026-05-04 15:44 | 40.86701 | 28.49477 | 6840 ft | 237 kts | 63° |
| 2026-05-04 15:44 | 40.87245 | 28.51534 | 6737 ft | 237 kts | 63° |
| 2026-05-04 15:44 | 40.87784 | 28.53595 | 6631 ft | 237 kts | 63° |
| 2026-05-04 15:45 | 40.88320 | 28.55659 | 6535 ft | 238 kts | 63° |
| 2026-05-04 15:45 | 40.88856 | 28.57726 | 6434 ft | 238 kts | 63° |
| 2026-05-04 15:45 | 40.89392 | 28.59793 | 6328 ft | 237 kts | 63° |
| 2026-05-04 15:45 | 40.89918 | 28.61824 | 6233 ft | 236 kts | 63° |
| 2026-05-04 15:46 | 40.90452 | 28.63885 | 6121 ft | 233 kts | 64° |
| 2026-05-04 15:46 | 40.90968 | 28.65877 | 6020 ft | 233 kts | 64° |
| 2026-05-04 15:46 | 40.91518 | 28.67895 | 5857 ft | 231 kts | 56° |
| 2026-05-04 15:46 | 40.92470 | 28.69494 | 5678 ft | 216 kts | 32° |
| 2026-05-04 15:47 | 40.93749 | 28.70494 | 5485 ft | 213 kts | 23° |
| 2026-05-04 15:47 | 40.95057 | 28.71436 | 5304 ft | 213 kts | 24° |
| 2026-05-04 15:47 | 40.96354 | 28.72383 | 5119 ft | 212 kts | 24° |
| 2026-05-04 15:47 | 40.97702 | 28.73058 | 5025 ft | 199 kts | 9° |
| 2026-05-04 15:48 | 40.98998 | 28.73282 | 5022 ft | 181 kts | 1° |
| 2026-05-04 15:48 | 41.00191 | 28.73317 | 5034 ft | 162 kts | 358° |
| 2026-05-04 15:48 | 41.02117 | 28.73286 | 4995 ft | 120 kts | 357° |
| 2026-05-04 15:49 | 41.02963 | 28.73266 | 4893 ft | 122 kts | 357° |
| 2026-05-04 15:49 | 41.03803 | 28.73248 | 4749 ft | 119 kts | 357° |
| 2026-05-04 15:49 | 41.04632 | 28.73231 | 4598 ft | 119 kts | 357° |
| 2026-05-04 15:49 | 41.05462 | 28.73214 | 4445 ft | 119 kts | 357° |
| 2026-05-04 15:50 | 41.06289 | 28.73197 | 4289 ft | 119 kts | 357° |
| 2026-05-04 15:50 | 41.07119 | 28.73180 | 4129 ft | 120 kts | 358° |
| 2026-05-04 15:50 | 41.07955 | 28.73162 | 3967 ft | 119 kts | 358° |
| 2026-05-04 15:50 | 41.08787 | 28.73145 | 3809 ft | 119 kts | 359° |
| 2026-05-04 15:51 | 41.09608 | 28.73128 | 3649 ft | 119 kts | 359° |
| 2026-05-04 15:51 | 41.10440 | 28.73111 | 3492 ft | 119 kts | 359° |
| 2026-05-04 15:51 | 41.11266 | 28.73093 | 3325 ft | 119 kts | 359° |
| 2026-05-04 15:51 | 41.12092 | 28.73076 | 3142 ft | 120 kts | 359° |
| 2026-05-04 15:52 | 41.12936 | 28.73059 | 2982 ft | 121 kts | 359° |
| 2026-05-04 15:52 | 41.13777 | 28.73041 | 2820 ft | 121 kts | 359° |
| 2026-05-04 15:52 | 41.14610 | 28.73024 | 2644 ft | 116 kts | 1° |
| 2026-05-04 15:52 | 41.15434 | 28.73007 | 2495 ft | 121 kts | 0° |
| 2026-05-04 15:53 | 41.16266 | 28.72989 | 2325 ft | 118 kts | 0° |
| 2026-05-04 15:53 | 41.17091 | 28.72975 | 2175 ft | 123 kts | 360° |
| 2026-05-04 15:53 | 41.17934 | 28.72955 | 1988 ft | 120 kts | 359° |
| 2026-05-04 15:53 | 41.18785 | 28.72937 | 1820 ft | 122 kts | 0° |
| 2026-05-04 15:54 | 41.19640 | 28.72925 | 1660 ft | 124 kts | 0° |
| 2026-05-04 15:54 | 41.20479 | 28.72917 | 1476 ft | 121 kts | 360° |
| 2026-05-04 15:54 | 41.21329 | 28.72888 | 1295 ft | 122 kts | 359° |
| 2026-05-04 15:54 | 41.22192 | 28.72865 | 1122 ft | 125 kts | 360° |
| 2026-05-04 15:55 | 41.23052 | 28.72855 | 968 ft | 123 kts | 359° |
| 2026-05-04 15:55 | 41.23900 | 28.72830 | 805 ft | 122 kts | 358° |
| 2026-05-04 15:55 | 41.24761 | 28.72810 | 640 ft | 125 kts | 356° |
| 2026-05-04 15:55 | 41.25605 | 28.72787 | 419 ft | 117 kts | 357° |
| 2026-05-04 15:56 | 41.26426 | 28.72769 | 212 ft | 120 kts | 358° |
| 2026-05-04 15:56 | 41.27218 | 28.72753 | 174 ft | 94 kts | 359° |
| 2026-05-04 15:56 | 41.27671 | 28.72746 | 175 ft | 37 kts | 359° |
| 2026-05-04 15:56 | 41.27823 | 28.72743 | 177 ft | 20 kts | 359° |
| 2026-05-04 15:57 | 41.27957 | 28.72771 | 177 ft | 20 kts | 22° |
| 2026-05-04 15:57 | 41.28065 | 28.72838 | 177 ft | 16 kts | 28° |
| 2026-05-04 15:57 | 41.28126 | 28.72912 | 176 ft | 7 kts | 74° |
| 2026-05-04 15:57 | 41.28115 | 28.72955 | 176 ft | 1 kts | 147° |
| 2026-05-04 15:58 | 41.28101 | 28.72962 | 176 ft | 4 kts | 165° |
| 2026-05-04 15:58 | 41.28065 | 28.72966 | 176 ft | 7 kts | 177° |
| 2026-05-04 15:58 | 41.28004 | 28.72968 | 176 ft | 11 kts | 179° |
| 2026-05-04 15:58 | 41.27939 | 28.72968 | 176 ft | 9 kts | 180° |
| 2026-05-04 15:59 | 41.27865 | 28.72969 | 176 ft | 13 kts | 180° |
| 2026-05-04 15:59 | 41.27797 | 28.72969 | 175 ft | 7 kts | 179° |
| 2026-05-04 15:59 | 41.27738 | 28.72972 | 176 ft | 10 kts | 179° |
| 2026-05-04 15:59 | 41.27659 | 28.72974 | 176 ft | 12 kts | 179° |
| 2026-05-04 16:00 | 41.27562 | 28.72977 | 176 ft | 16 kts | 179° |
| 2026-05-04 16:00 | 41.27473 | 28.72977 | 175 ft | 14 kts | 180° |
| 2026-05-04 16:00 | 41.27395 | 28.72980 | 175 ft | 12 kts | 176° |
| 2026-05-04 16:00 | 41.27300 | 28.72982 | 176 ft | 10 kts | 179° |
| 2026-05-04 16:01 | 41.27246 | 28.72983 | 176 ft | 9 kts | 179° |
| 2026-05-04 16:01 | 41.27178 | 28.72984 | 176 ft | 9 kts | 179° |
| 2026-05-04 16:01 | 41.27112 | 28.72985 | 175 ft | 10 kts | 179° |
| 2026-05-04 16:01 | 41.27040 | 28.72987 | 175 ft | 11 kts | 179° |
| 2026-05-04 16:02 | 41.26972 | 28.72986 | 176 ft | 7 kts | 179° |
| 2026-05-04 16:02 | 41.26916 | 28.72988 | 176 ft | 5 kts | 179° |
| 2026-05-04 16:02 | 41.26856 | 28.73093 | 175 ft | 12 kts | 89° |
| 2026-05-04 16:03 | 41.26858 | 28.73211 | 176 ft | 10 kts | 89° |
| 2026-05-04 16:03 | 41.26859 | 28.73318 | 176 ft | 12 kts | 89° |
| 2026-05-04 16:03 | 41.26857 | 28.73417 | 176 ft | 8 kts | 105° |
| 2026-05-04 16:03 | 41.26816 | 28.73452 | 176 ft | 6 kts | 179° |
| 2026-05-04 16:04 | 41.26770 | 28.73448 | 176 ft | 2 kts | 183° |
| 2026-05-04 16:04 | 41.26765 | 28.73447 | 176 ft | 0 kts | 183° |